Wetterdaten: Woche 26.08.13 - 01.09.13 (KW35)
Datum Zeit Temperatur Luftfeuchte Luftdruck Niederschlag Windrichtung Sonnenschein Solar Wind
26.08.2013 00:00 11,5 C 98 % 1010,0 hPa 0,0 l/m N 0,00 h 0 W/m 0,5 km/h (0 Bft)
26.08.2013 01:00 11,3 C 99 % 1009,9 hPa 0,0 l/m N 0,00 h 0 W/m 2,8 km/h (1 Bft)
26.08.2013 02:00 11,9 C 99 % 1010,0 hPa 0,0 l/m SW 0,00 h 0 W/m 3,2 km/h (1 Bft)
26.08.2013 03:00 11,9 C 99 % 1009,7 hPa 0,0 l/m SW 0,00 h 0 W/m 1,7 km/h (1 Bft)
26.08.2013 04:00 11,2 C 99 % 1009,2 hPa 0,0 l/m N 0,00 h 0 W/m 1,9 km/h (1 Bft)
26.08.2013 05:00 10,6 C 99 % 1009,5 hPa 0,2 l/m N 0,00 h 0 W/m 0,1 km/h (0 Bft)
26.08.2013 06:00 10,0 C 99 % 1009,7 hPa 0,0 l/m N 0,00 h 12 W/m 0,0 km/h (0 Bft)
26.08.2013 07:00 10,6 C 99 % 1009,8 hPa 0,0 l/m N 0,17 h 73 W/m 0,7 km/h (0 Bft)
26.08.2013 08:00 11,6 C 99 % 1010,2 hPa 0,0 l/m N 0,17 h 116 W/m 2,1 km/h (1 Bft)
26.08.2013 09:00 12,9 C 98 % 1010,5 hPa 0,0 l/m S-SW 0,08 h 196 W/m 4,8 km/h (1 Bft)
26.08.2013 10:00 14,9 C 89 % 1010,8 hPa 0,0 l/m S-SW 0,75 h 427 W/m 7,0 km/h (2 Bft)
26.08.2013 11:00 16,3 C 81 % 1010,8 hPa 0,0 l/m SW 0,17 h 284 W/m 8,0 km/h (2 Bft)
26.08.2013 12:00 17,6 C 71 % 1010,7 hPa 0,0 l/m SO 0,67 h 480 W/m 11,7 km/h (2 Bft)
26.08.2013 13:00 18,8 C 64 % 1010,7 hPa 0,0 l/m O-SO 0,67 h 552 W/m 10,5 km/h (2 Bft)
26.08.2013 14:00 18,9 C 61 % 1010,7 hPa 0,0 l/m O-SO 0,17 h 316 W/m 8,4 km/h (2 Bft)
26.08.2013 15:00 19,0 C 62 % 1010,5 hPa 0,0 l/m O-SO 0,25 h 334 W/m 6,5 km/h (2 Bft)
26.08.2013 16:00 19,2 C 62 % 1010,5 hPa 0,0 l/m O-SO 0,08 h 115 W/m 8,0 km/h (2 Bft)
26.08.2013 17:00 18,9 C 65 % 1010,7 hPa 0,0 l/m O-SO 0,00 h 155 W/m 12,8 km/h (3 Bft)
26.08.2013 18:00 18,4 C 69 % 1010,6 hPa 0,0 l/m O 0,00 h 67 W/m 11,8 km/h (2 Bft)
26.08.2013 19:00 17,7 C 72 % 1010,7 hPa 0,0 l/m O 0,00 h 16 W/m 9,9 km/h (2 Bft)
26.08.2013 20:00 16,8 C 78 % 1010,9 hPa 0,0 l/m O-NO 0,00 h 0 W/m 6,9 km/h (2 Bft)
26.08.2013 21:00 15,8 C 84 % 1011,2 hPa 0,0 l/m N 0,00 h 0 W/m 2,8 km/h (1 Bft)
26.08.2013 22:00 15,4 C 87 % 1011,3 hPa 0,0 l/m N 0,00 h 0 W/m 2,0 km/h (1 Bft)
26.08.2013 23:00 14,6 C 90 % 1011,4 hPa 0,0 l/m N 0,00 h 0 W/m 1,9 km/h (1 Bft)
27.08.2013 00:00 14,1 C 92 % 1011,4 hPa 0,0 l/m O-NO 0,00 h 0 W/m 3,1 km/h (1 Bft)
27.08.2013 01:00 13,3 C 93 % 1011,0 hPa 0,0 l/m O-NO 0,00 h 0 W/m 3,7 km/h (1 Bft)
27.08.2013 02:00 12,5 C 95 % 1011,0 hPa 0,0 l/m O-NO 0,00 h 0 W/m 3,5 km/h (1 Bft)
27.08.2013 03:00 12,1 C 96 % 1010,8 hPa 0,0 l/m O-NO 0,00 h 0 W/m 3,6 km/h (1 Bft)
27.08.2013 04:00 12,0 C 97 % 1010,9 hPa 0,0 l/m O-NO 0,00 h 0 W/m 4,5 km/h (1 Bft)
27.08.2013 05:00 12,5 C 98 % 1010,9 hPa 0,0 l/m O-NO 0,00 h 0 W/m 5,7 km/h (1 Bft)
27.08.2013 06:00 12,5 C 98 % 1010,9 hPa 0,0 l/m NO 0,00 h 6 W/m 8,4 km/h (2 Bft)
27.08.2013 07:00 12,9 C 98 % 1010,9 hPa 0,0 l/m O-NO 0,00 h 16 W/m 5,9 km/h (2 Bft)
27.08.2013 08:00 13,5 C 96 % 1010,9 hPa 0,0 l/m O-NO 0,00 h 39 W/m 5,3 km/h (1 Bft)
27.08.2013 09:00 14,3 C 92 % 1011,1 hPa 0,0 l/m O-NO 0,00 h 93 W/m 6,8 km/h (2 Bft)
27.08.2013 10:00 14,6 C 91 % 1011,2 hPa 0,0 l/m NO 0,00 h 87 W/m 8,2 km/h (2 Bft)
27.08.2013 11:00 15,3 C 89 % 1010,9 hPa 0,0 l/m NO 0,25 h 290 W/m 8,6 km/h (2 Bft)
27.08.2013 12:00 17,0 C 81 % 1010,6 hPa 0,0 l/m O-NO 0,08 h 316 W/m 11,0 km/h (2 Bft)
27.08.2013 13:00 18,2 C 74 % 1010,5 hPa 0,0 l/m NO 0,17 h 372 W/m 9,8 km/h (2 Bft)
27.08.2013 14:00 18,2 C 73 % 1010,2 hPa 0,0 l/m O-NO 0,00 h 245 W/m 10,7 km/h (2 Bft)
27.08.2013 15:00 18,7 C 71 % 1009,8 hPa 0,0 l/m O 0,08 h 161 W/m 10,2 km/h (2 Bft)
27.08.2013 16:00 18,6 C 71 % 1009,6 hPa 0,0 l/m O-NO 0,08 h 198 W/m 11,8 km/h (2 Bft)
27.08.2013 17:00 18,4 C 72 % 1009,5 hPa 0,0 l/m O-NO 0,00 h 77 W/m 10,9 km/h (2 Bft)
27.08.2013 18:00 17,3 C 78 % 1009,9 hPa 0,0 l/m O 0,00 h 15 W/m 7,0 km/h (2 Bft)
27.08.2013 19:00 15,6 C 87 % 1010,3 hPa 0,0 l/m N-NO 0,00 h 6 W/m 5,3 km/h (1 Bft)
27.08.2013 20:00 14,5 C 91 % 1011,0 hPa 0,0 l/m NW 0,00 h 0 W/m 10,7 km/h (2 Bft)
27.08.2013 21:00 14,0 C 94 % 1011,5 hPa 10,8 l/m W-SW 0,00 h 0 W/m 7,6 km/h (2 Bft)
27.08.2013 22:00 13,5 C 97 % 1011,8 hPa 0,2 l/m W 0,00 h 0 W/m 4,9 km/h (1 Bft)
27.08.2013 23:00 13,2 C 97 % 1011,9 hPa 0,0 l/m W 0,00 h 0 W/m 3,1 km/h (1 Bft)
28.08.2013 00:00 12,9 C 97 % 1012,2 hPa 1,4 l/m W 0,00 h 0 W/m 3,1 km/h (1 Bft)
28.08.2013 01:00 12,8 C 98 % 1012,2 hPa 0,8 l/m W 0,00 h 0 W/m 3,3 km/h (1 Bft)
28.08.2013 02:00 12,8 C 98 % 1012,3 hPa 0,2 l/m N 0,00 h 0 W/m 1,6 km/h (1 Bft)
28.08.2013 03:00 12,9 C 98 % 1012,4 hPa 1,0 l/m N 0,00 h 0 W/m 0,5 km/h (0 Bft)
28.08.2013 04:00 12,9 C 98 % 1012,8 hPa 0,2 l/m N 0,00 h 0 W/m 0,7 km/h (0 Bft)
28.08.2013 05:00 13,1 C 98 % 1012,9 hPa 0,2 l/m N 0,00 h 0 W/m 1,2 km/h (1 Bft)
28.08.2013 06:00 13,1 C 98 % 1013,3 hPa 0,0 l/m N 0,00 h 5 W/m 1,5 km/h (1 Bft)
28.08.2013 07:00 13,1 C 99 % 1014,0 hPa 0,0 l/m N 0,00 h 22 W/m 1,7 km/h (1 Bft)
28.08.2013 08:00 13,5 C 99 % 1014,3 hPa 0,0 l/m W 0,00 h 69 W/m 3,3 km/h (1 Bft)
28.08.2013 09:00 14,0 C 98 % 1014,8 hPa 0,0 l/m W 0,00 h 99 W/m 5,1 km/h (1 Bft)
28.08.2013 10:00 14,4 C 94 % 1015,4 hPa 0,0 l/m W-NW 0,00 h 94 W/m 5,7 km/h (1 Bft)
28.08.2013 11:00 15,0 C 91 % 1015,6 hPa 0,0 l/m NW 0,00 h 160 W/m 5,3 km/h (1 Bft)
28.08.2013 12:00 16,4 C 85 % 1015,8 hPa 0,0 l/m SO 0,17 h 322 W/m 6,6 km/h (2 Bft)
28.08.2013 13:00 16,8 C 81 % 1015,9 hPa 0,0 l/m S 0,00 h 218 W/m 5,2 km/h (1 Bft)
28.08.2013 14:00 16,9 C 80 % 1016,2 hPa 0,0 l/m S-SW 0,00 h 192 W/m 4,9 km/h (1 Bft)
28.08.2013 15:00 17,4 C 77 % 1016,4 hPa 0,0 l/m W-SW 0,00 h 163 W/m 6,4 km/h (2 Bft)
28.08.2013 16:00 18,5 C 72 % 1016,2 hPa 0,0 l/m W-NW 0,75 h 509 W/m 9,8 km/h (2 Bft)
28.08.2013 17:00 19,1 C 65 % 1016,4 hPa 0,0 l/m W-SW 0,58 h 303 W/m 7,4 km/h (2 Bft)
28.08.2013 18:00 18,4 C 65 % 1016,5 hPa 0,0 l/m W-SW 0,50 h 170 W/m 3,7 km/h (1 Bft)
28.08.2013 19:00 16,9 C 72 % 1017,3 hPa 0,4 l/m O-NO 0,17 h 30 W/m 11,5 km/h (2 Bft)
28.08.2013 20:00 14,5 C 82 % 1017,9 hPa 0,0 l/m N 0,00 h 8 W/m 1,6 km/h (1 Bft)
28.08.2013 21:00 13,5 C 87 % 1018,4 hPa 0,0 l/m N 0,00 h 0 W/m 0,4 km/h (0 Bft)
28.08.2013 22:00 12,8 C 89 % 1018,6 hPa 0,0 l/m N 0,00 h 0 W/m 0,4 km/h (0 Bft)
28.08.2013 23:00 12,0 C 90 % 1018,8 hPa 0,0 l/m N 0,00 h 0 W/m 0,4 km/h (0 Bft)
29.08.2013 00:00 11,3 C 91 % 1018,9 hPa 0,0 l/m N 0,00 h 0 W/m 0,0 km/h (0 Bft)
29.08.2013 01:00 10,6 C 91 % 1018,8 hPa 0,0 l/m N 0,00 h 0 W/m 0,3 km/h (0 Bft)
29.08.2013 02:00 9,9 C 92 % 1018,8 hPa 0,0 l/m N 0,00 h 0 W/m 0,5 km/h (0 Bft)
29.08.2013 03:00 9,7 C 93 % 1018,9 hPa 0,0 l/m N 0,00 h 0 W/m 0,4 km/h (0 Bft)
29.08.2013 04:00 9,5 C 94 % 1019,2 hPa 0,0 l/m N 0,00 h 0 W/m 0,4 km/h (0 Bft)
29.08.2013 05:00 9,0 C 94 % 1019,3 hPa 0,0 l/m N 0,00 h 0 W/m 0,9 km/h (0 Bft)
29.08.2013 06:00 8,7 C 94 % 1019,4 hPa 0,0 l/m N 0,00 h 9 W/m 0,1 km/h (0 Bft)
29.08.2013 07:00 9,3 C 96 % 1019,8 hPa 0,0 l/m N 0,00 h 53 W/m 1,5 km/h (1 Bft)
29.08.2013 08:00 11,2 C 97 % 1020,1 hPa 0,0 l/m NO 0,83 h 199 W/m 4,1 km/h (1 Bft)
29.08.2013 09:00 13,9 C 91 % 1020,3 hPa 0,0 l/m O-NO 1,00 h 369 W/m 6,0 km/h (2 Bft)
29.08.2013 10:00 16,0 C 83 % 1020,3 hPa 0,0 l/m O-NO 0,92 h 482 W/m 9,0 km/h (2 Bft)
29.08.2013 11:00 17,3 C 78 % 1020,1 hPa 0,0 l/m NO 0,50 h 520 W/m 12,8 km/h (3 Bft)
29.08.2013 12:00 18,2 C 69 % 1019,8 hPa 0,0 l/m O-NO 0,33 h 423 W/m 14,6 km/h (3 Bft)
29.08.2013 13:00 19,4 C 64 % 1019,5 hPa 0,0 l/m O 0,42 h 459 W/m 11,6 km/h (2 Bft)
29.08.2013 14:00 20,9 C 57 % 1019,2 hPa 0,0 l/m O-NO 0,75 h 632 W/m 12,5 km/h (3 Bft)
29.08.2013 15:00 21,5 C 55 % 1018,6 hPa 0,0 l/m O 0,75 h 631 W/m 13,4 km/h (3 Bft)
29.08.2013 16:00 22,1 C 53 % 1018,6 hPa 0,0 l/m NO 0,75 h 480 W/m 11,8 km/h (2 Bft)
29.08.2013 17:00 21,8 C 53 % 1018,6 hPa 0,0 l/m NO 0,50 h 245 W/m 11,0 km/h (2 Bft)
29.08.2013 18:00 21,5 C 55 % 1018,6 hPa 0,0 l/m NO 1,00 h 242 W/m 10,2 km/h (2 Bft)
29.08.2013 19:00 20,6 C 59 % 1018,8 hPa 0,0 l/m O-NO 0,00 h 33 W/m 6,9 km/h (2 Bft)
29.08.2013 20:00 18,3 C 70 % 1019,5 hPa 0,0 l/m N 0,00 h 5 W/m 0,8 km/h (0 Bft)
29.08.2013 21:00 15,8 C 78 % 1019,8 hPa 0,0 l/m N 0,00 h 0 W/m 0,7 km/h (0 Bft)
29.08.2013 22:00 14,2 C 83 % 1019,9 hPa 0,0 l/m N 0,00 h 0 W/m 1,1 km/h (0 Bft)
29.08.2013 23:00 13,2 C 87 % 1019,8 hPa 0,0 l/m N 0,00 h 0 W/m 1,3 km/h (1 Bft)
30.08.2013 00:00 12,6 C 89 % 1019,9 hPa 0,0 l/m N 0,00 h 0 W/m 2,0 km/h (1 Bft)
30.08.2013 01:00 12,2 C 91 % 1019,7 hPa 0,0 l/m N-NO 0,00 h 0 W/m 5,1 km/h (1 Bft)
30.08.2013 02:00 12,0 C 93 % 1019,5 hPa 0,0 l/m N 0,00 h 0 W/m 6,8 km/h (2 Bft)
30.08.2013 03:00 11,8 C 93 % 1019,4 hPa 0,0 l/m N 0,00 h 0 W/m 4,3 km/h (1 Bft)
30.08.2013 04:00 11,3 C 93 % 1019,2 hPa 0,0 l/m N 0,00 h 0 W/m 0,4 km/h (0 Bft)
30.08.2013 05:00 10,6 C 92 % 1019,2 hPa 0,0 l/m N 0,00 h 0 W/m 0,7 km/h (0 Bft)
30.08.2013 06:00 10,1 C 93 % 1019,2 hPa 0,0 l/m N 0,00 h 8 W/m 1,3 km/h (1 Bft)
30.08.2013 07:00 10,3 C 95 % 1019,3 hPa 0,0 l/m N 0,00 h 53 W/m 0,4 km/h (0 Bft)
30.08.2013 08:00 12,3 C 95 % 1019,3 hPa 0,0 l/m N 0,83 h 205 W/m 2,4 km/h (1 Bft)
30.08.2013 09:00 14,8 C 87 % 1019,3 hPa 0,0 l/m N 1,00 h 380 W/m 5,3 km/h (1 Bft)
30.08.2013 10:00 16,8 C 77 % 1019,3 hPa 0,0 l/m N-NO 1,00 h 541 W/m 5,2 km/h (1 Bft)
30.08.2013 11:00 18,6 C 68 % 1018,9 hPa 0,0 l/m O-NO 1,00 h 666 W/m 7,9 km/h (2 Bft)
30.08.2013 12:00 20,4 C 56 % 1018,5 hPa 0,0 l/m O-SO 1,00 h 746 W/m 9,4 km/h (2 Bft)
30.08.2013 13:00 22,0 C 47 % 1018,3 hPa 0,0 l/m O 1,00 h 777 W/m 9,5 km/h (2 Bft)
30.08.2013 14:00 23,2 C 42 % 1018,0 hPa 0,0 l/m O 1,00 h 761 W/m 8,6 km/h (2 Bft)
30.08.2013 15:00 24,5 C 37 % 1017,5 hPa 0,0 l/m NO 1,00 h 692 W/m 7,2 km/h (2 Bft)
30.08.2013 16:00 24,8 C 36 % 1017,3 hPa 0,0 l/m N-NW 1,00 h 578 W/m 8,0 km/h (2 Bft)
30.08.2013 17:00 24,8 C 37 % 1017,3 hPa 0,0 l/m N 1,00 h 429 W/m 7,8 km/h (2 Bft)
30.08.2013 18:00 23,9 C 39 % 1017,2 hPa 0,0 l/m N-NW 1,00 h 229 W/m 5,7 km/h (1 Bft)
30.08.2013 19:00 22,2 C 48 % 1017,4 hPa 0,0 l/m N 0,08 h 26 W/m 0,7 km/h (0 Bft)
30.08.2013 20:00 18,3 C 60 % 1017,9 hPa 0,0 l/m N 0,00 h 5 W/m 0,3 km/h (0 Bft)
30.08.2013 21:00 16,1 C 68 % 1018,3 hPa 0,0 l/m N 0,00 h 0 W/m 0,0 km/h (0 Bft)
30.08.2013 22:00 15,4 C 73 % 1018,6 hPa 0,0 l/m W 0,00 h 0 W/m 1,5 km/h (1 Bft)
30.08.2013 23:00 15,0 C 77 % 1018,6 hPa 0,0 l/m N 0,00 h 0 W/m 0,0 km/h (0 Bft)
31.08.2013 00:00 14,1 C 81 % 1018,6 hPa 0,0 l/m N 0,00 h 0 W/m 0,0 km/h (0 Bft)
31.08.2013 01:00 13,2 C 83 % 1018,8 hPa 0,0 l/m N 0,00 h 0 W/m 0,4 km/h (0 Bft)
31.08.2013 02:00 12,7 C 86 % 1018,9 hPa 0,0 l/m N 0,00 h 0 W/m 0,1 km/h (0 Bft)
31.08.2013 03:00 12,7 C 87 % 1019,0 hPa 0,0 l/m N 0,00 h 0 W/m 0,7 km/h (0 Bft)
31.08.2013 04:00 12,4 C 88 % 1019,2 hPa 0,0 l/m N 0,00 h 0 W/m 0,0 km/h (0 Bft)
31.08.2013 05:00 12,0 C 90 % 1019,1 hPa 0,0 l/m N 0,00 h 0 W/m 0,0 km/h (0 Bft)
31.08.2013 06:00 11,9 C 91 % 1019,1 hPa 0,0 l/m N 0,08 h 11 W/m 0,0 km/h (0 Bft)
31.08.2013 07:00 12,1 C 93 % 1019,3 hPa 0,0 l/m N 0,00 h 64 W/m 0,3 km/h (0 Bft)
31.08.2013 08:00 13,8 C 91 % 1019,5 hPa 0,0 l/m W 0,67 h 195 W/m 1,2 km/h (1 Bft)
31.08.2013 09:00 16,6 C 83 % 1019,5 hPa 0,0 l/m W-SW 0,75 h 306 W/m 5,9 km/h (2 Bft)
31.08.2013 10:00 18,8 C 72 % 1019,5 hPa 0,0 l/m S-SO 1,00 h 509 W/m 5,7 km/h (1 Bft)
31.08.2013 11:00 19,7 C 62 % 1019,2 hPa 0,0 l/m SW 0,83 h 563 W/m 6,0 km/h (2 Bft)
31.08.2013 12:00 21,2 C 57 % 1018,9 hPa 0,0 l/m W 0,83 h 697 W/m 12,4 km/h (3 Bft)
31.08.2013 13:00 21,6 C 56 % 1018,8 hPa 0,0 l/m W 0,50 h 503 W/m 9,0 km/h (2 Bft)
31.08.2013 14:00 23,0 C 52 % 1018,7 hPa 0,0 l/m W 0,67 h 570 W/m 11,7 km/h (2 Bft)
31.08.2013 15:00 23,8 C 48 % 1018,4 hPa 0,0 l/m SW 0,67 h 537 W/m 10,7 km/h (2 Bft)
31.08.2013 16:00 23,4 C 48 % 1018,3 hPa 0,0 l/m W-NW 0,17 h 281 W/m 9,1 km/h (2 Bft)
31.08.2013 17:00 23,1 C 50 % 1018,3 hPa 0,0 l/m W-NW 0,08 h 177 W/m 9,2 km/h (2 Bft)
31.08.2013 18:00 21,7 C 53 % 1018,5 hPa 0,0 l/m N 0,00 h 49 W/m 12,6 km/h (3 Bft)
31.08.2013 19:00 20,1 C 58 % 1018,8 hPa 0,0 l/m N 0,00 h 27 W/m 11,1 km/h (2 Bft)
31.08.2013 20:00 18,9 C 64 % 1019,4 hPa 0,0 l/m N 0,00 h 0 W/m 6,8 km/h (2 Bft)
31.08.2013 21:00 17,7 C 73 % 1020,2 hPa 0,0 l/m N 0,00 h 0 W/m 7,9 km/h (2 Bft)
31.08.2013 22:00 16,6 C 80 % 1020,9 hPa 0,0 l/m N 0,00 h 0 W/m 3,7 km/h (1 Bft)
31.08.2013 23:00 15,7 C 85 % 1021,0 hPa 0,0 l/m N 0,00 h 0 W/m 0,1 km/h (0 Bft)
01.09.2013 00:00 15,2 C 88 % 1020,9 hPa 0,0 l/m N 0,00 h 0 W/m 0,0 km/h (0 Bft)
01.09.2013 01:00 14,9 C 90 % 1020,9 hPa 0,0 l/m N 0,00 h 0 W/m 0,1 km/h (0 Bft)
01.09.2013 02:00 14,7 C 91 % 1020,9 hPa 0,0 l/m N 0,00 h 0 W/m 1,2 km/h (1 Bft)
01.09.2013 03:00 14,6 C 92 % 1020,9 hPa 0,0 l/m N 0,00 h 0 W/m 1,3 km/h (1 Bft)
01.09.2013 04:00 14,7 C 92 % 1020,7 hPa 0,0 l/m N 0,00 h 0 W/m 0,3 km/h (0 Bft)
01.09.2013 05:00 14,6 C 92 % 1020,7 hPa 0,0 l/m N 0,00 h 0 W/m 3,3 km/h (1 Bft)
01.09.2013 06:00 14,4 C 92 % 1020,9 hPa 0,0 l/m N 0,08 h 8 W/m 1,9 km/h (1 Bft)
01.09.2013 07:00 14,0 C 93 % 1021,1 hPa 0,0 l/m N 0,00 h 28 W/m 0,7 km/h (0 Bft)
01.09.2013 08:00 14,5 C 93 % 1021,4 hPa 0,0 l/m N-NW 0,00 h 102 W/m 2,9 km/h (1 Bft)
01.09.2013 09:00 15,8 C 87 % 1021,7 hPa 0,0 l/m N-NW 0,08 h 171 W/m 5,9 km/h (2 Bft)
01.09.2013 10:00 17,0 C 81 % 1021,7 hPa 0,0 l/m N-NO 0,17 h 245 W/m 7,4 km/h (2 Bft)
01.09.2013 11:00 17,5 C 78 % 1021,7 hPa 0,0 l/m N 0,42 h 392 W/m 9,8 km/h (2 Bft)
01.09.2013 12:00 17,5 C 77 % 1021,7 hPa 0,0 l/m N-NO 0,17 h 276 W/m 18,0 km/h (3 Bft)
01.09.2013 13:00 18,0 C 71 % 1021,6 hPa 0,0 l/m NO 0,42 h 485 W/m 18,5 km/h (3 Bft)
01.09.2013 14:00 19,0 C 63 % 1021,5 hPa 0,0 l/m N-NO 0,33 h 341 W/m 17,0 km/h (3 Bft)
01.09.2013 15:00 18,4 C 64 % 1021,8 hPa 0,0 l/m N-NO 0,00 h 180 W/m 17,7 km/h (3 Bft)
01.09.2013 16:00 18,1 C 65 % 1021,9 hPa 0,0 l/m N 0,25 h 295 W/m 16,9 km/h (3 Bft)
01.09.2013 17:00 17,9 C 64 % 1022,1 hPa 0,0 l/m N-NO 0,33 h 222 W/m 19,0 km/h (3 Bft)
01.09.2013 18:00 16,8 C 65 % 1022,7 hPa 0,0 l/m N-NO 0,17 h 77 W/m 13,3 km/h (3 Bft)
01.09.2013 19:00 15,5 C 67 % 1023,3 hPa 0,0 l/m N-NO 0,00 h 21 W/m 14,2 km/h (3 Bft)
01.09.2013 20:00 13,8 C 69 % 1024,1 hPa 0,0 l/m N 0,00 h 0 W/m 9,3 km/h (2 Bft)
01.09.2013 21:00 12,5 C 70 % 1025,0 hPa 0,0 l/m N-NO 0,00 h 0 W/m 4,7 km/h (1 Bft)
01.09.2013 22:00 11,7 C 74 % 1025,4 hPa 0,0 l/m N 0,00 h 0 W/m 0,5 km/h (0 Bft)
01.09.2013 23:00 10,6 C 79 % 1025,4 hPa 0,0 l/m N 0,00 h 0 W/m 0,0 km/h (0 Bft)
Min-Datum _ 29.08.13 30.08.13 26.08.13 - - - - 26.08.13
_ Min-Zeit 07:05 16:25 04:20 - - - - 00:00
Minimum _ 8,4 C 34 % 1009,1 hPa - - - - 0,0 km/h (0 Bft)
Max-Datum _ 30.08.13 26.08.13 01.09.13 27.08.13 - 26.08.13 26.08.13 01.09.13
_ Max-Zeit 15:55 01:15 22:50 21:20 - 07:50 13:15 13:00
Maximum _ 25,1 C 99 % 1025,6 hPa 10,8 l/m - 0,08 h 979 W/m 25,7 km/h
N-NO (4 Bft)
Durchschnitt _ 15,6 C 80 % 1016,5 hPa #15,4 l/m O-NO #33:20 h 254 W/m 5,5 km/h (1 Bft)